createdAt,value
2023-05-03T00:00:05.734Z,209.88
2023-05-03T00:00:37.948Z,210.00
2023-05-03T00:01:10.362Z,210.00
2023-05-03T00:01:42.820Z,210.00
2023-05-03T00:02:15.264Z,183.68
2023-05-03T00:02:47.705Z,174.76
2023-05-03T00:03:20.082Z,173.19
2023-05-03T00:03:52.497Z,179.14
2023-05-03T00:04:24.906Z,177.66
2023-05-03T00:04:57.377Z,176.17
2023-05-03T00:05:29.859Z,180.64
2023-05-03T00:06:02.189Z,176.13
2023-05-03T00:06:34.714Z,174.68
2023-05-03T00:07:07.289Z,176.15
2023-05-03T00:07:39.719Z,167.66
2023-05-03T00:08:12.175Z,176.17
2023-05-03T00:08:44.589Z,177.65
2023-05-03T00:09:17.026Z,176.13
2023-05-03T00:09:49.485Z,180.64
2023-05-03T00:10:21.928Z,177.65
2023-05-03T00:10:54.385Z,171.72
2023-05-03T00:11:26.815Z,176.17
2023-05-03T00:11:59.196Z,176.17
2023-05-03T00:12:31.665Z,177.64
2023-05-03T00:13:04.075Z,179.14
2023-05-03T00:13:36.467Z,179.14
2023-05-03T00:14:08.917Z,176.18
2023-05-03T00:14:41.332Z,179.14
2023-05-03T00:15:13.751Z,222.71
2023-05-03T00:15:46.174Z,255.00
2023-05-03T00:16:18.607Z,255.00
2023-05-03T00:16:51.385Z,255.00
2023-05-03T00:17:23.781Z,257.66
2023-05-03T00:17:56.210Z,300.00
2023-05-03T00:18:28.727Z,334.48
2023-05-03T00:19:01.154Z,255.00
2023-05-03T00:19:33.565Z,255.00
2023-05-03T00:20:06.099Z,255.00
2023-05-03T00:20:38.381Z,255.00
2023-05-03T00:21:10.811Z,255.00
2023-05-03T00:21:43.218Z,293.17
2023-05-03T00:22:15.896Z,289.55
2023-05-03T00:22:48.337Z,255.00
2023-05-03T00:23:20.776Z,255.00
2023-05-03T00:23:53.208Z,255.00
2023-05-03T00:24:25.678Z,255.00
2023-05-03T00:24:58.106Z,255.00
2023-05-03T00:25:30.524Z,255.00
2023-05-03T00:26:03.019Z,255.00
2023-05-03T00:26:35.515Z,255.00
2023-05-03T00:27:07.981Z,255.00
2023-05-03T00:27:40.387Z,255.00
2023-05-03T00:28:12.813Z,255.00
2023-05-03T00:28:45.257Z,316.86
2023-05-03T00:29:17.703Z,30.00
2023-05-03T00:29:50.094Z,30.00
2023-05-03T00:30:22.588Z,30.00
2023-05-03T00:30:55.024Z,30.00
2023-05-03T00:31:27.429Z,30.00
2023-05-03T00:31:59.844Z,30.00
2023-05-03T00:32:32.309Z,30.00
2023-05-03T00:33:04.709Z,30.00
2023-05-03T00:33:37.223Z,30.00
2023-05-03T00:34:09.594Z,30.00
2023-05-03T00:34:42.017Z,30.00
2023-05-03T00:35:14.426Z,30.00
2023-05-03T00:35:46.817Z,30.00
2023-05-03T00:36:19.216Z,30.00
2023-05-03T00:36:51.686Z,48.68
2023-05-03T00:37:24.074Z,75.00
2023-05-03T00:37:56.523Z,75.00
2023-05-03T00:38:28.971Z,75.00
2023-05-03T00:39:01.482Z,75.00
2023-05-03T00:39:33.895Z,75.00
2023-05-03T00:40:06.439Z,75.00
2023-05-03T00:40:38.722Z,75.00
2023-05-03T00:41:11.183Z,75.00
2023-05-03T00:41:43.636Z,75.00
2023-05-03T00:42:16.068Z,75.00
2023-05-03T00:42:48.468Z,75.00
2023-05-03T00:43:20.882Z,75.00
2023-05-03T00:43:53.353Z,75.00
2023-05-03T00:44:25.744Z,75.00
2023-05-03T00:44:58.189Z,75.00
2023-05-03T00:45:30.636Z,75.00
2023-05-03T00:46:12.917Z,75.00
2023-05-03T00:46:35.571Z,75.00
2023-05-03T00:47:08.012Z,75.00
2023-05-03T00:47:40.405Z,51.73
2023-05-03T00:48:12.863Z,30.00
2023-05-03T00:48:45.245Z,30.00
2023-05-03T00:49:17.675Z,30.00
2023-05-03T00:49:50.109Z,30.00
2023-05-03T00:50:22.576Z,38.26
2023-05-03T00:50:54.976Z,75.00
2023-05-03T00:51:27.400Z,255.00
2023-05-03T00:51:59.780Z,255.00
2023-05-03T00:52:32.222Z,255.00
2023-05-03T00:53:04.659Z,255.00
2023-05-03T00:53:37.087Z,255.00
2023-05-03T00:54:09.496Z,255.00
2023-05-03T00:54:41.932Z,255.00
2023-05-03T00:55:14.353Z,255.00
2023-05-03T00:55:46.789Z,255.00
2023-05-03T00:56:19.184Z,255.00
2023-05-03T00:56:52.709Z,255.00
2023-05-03T00:57:24.037Z,255.00
2023-05-03T00:57:56.436Z,255.00
2023-05-03T00:58:28.827Z,255.00
2023-05-03T00:59:01.252Z,255.00
2023-05-03T00:59:33.658Z,255.00
2023-05-03T01:00:06.295Z,247.38
2023-05-03T01:00:38.558Z,176.90
2023-05-03T01:01:11.018Z,209.28
2023-05-03T01:01:43.393Z,208.66
2023-05-03T01:02:15.826Z,209.28
2023-05-03T01:02:48.300Z,210.00
2023-05-03T01:03:20.765Z,209.88
2023-05-03T01:03:53.162Z,210.00
2023-05-03T01:04:25.588Z,209.77
2023-05-03T01:04:58.008Z,209.28
2023-05-03T01:05:30.464Z,208.77
2023-05-03T01:06:02.954Z,208.15
2023-05-03T01:06:35.361Z,209.77
2023-05-03T01:07:07.822Z,210.00
2023-05-03T01:07:40.186Z,208.66
2023-05-03T01:08:12.577Z,210.00
2023-05-03T01:08:45.010Z,209.28
2023-05-03T01:09:17.417Z,210.00
2023-05-03T01:09:50.710Z,207.93
2023-05-03T01:10:23.145Z,209.77
2023-05-03T01:10:55.721Z,210.00
2023-05-03T01:11:28.126Z,198.28
2023-05-03T01:12:00.533Z,166.32
2023-05-03T01:12:32.964Z,174.70
2023-05-03T01:13:05.375Z,183.68
2023-05-03T01:13:37.842Z,209.88
2023-05-03T01:14:10.256Z,209.88
2023-05-03T01:14:42.685Z,209.88
2023-05-03T01:15:15.099Z,210.00
2023-05-03T01:15:47.509Z,209.28
2023-05-03T01:16:19.983Z,210.00
2023-05-03T01:16:52.389Z,210.00
2023-05-03T01:17:24.814Z,209.28
2023-05-03T01:17:57.337Z,210.00
2023-05-03T01:18:29.734Z,209.39
2023-05-03T01:19:02.147Z,209.88
2023-05-03T01:19:34.571Z,209.28
2023-05-03T01:20:07.008Z,192.05
2023-05-03T01:20:39.415Z,176.13
2023-05-03T01:21:11.831Z,165.00
2023-05-03T01:21:44.225Z,179.14
2023-05-03T01:22:16.664Z,166.36
2023-05-03T01:22:49.115Z,177.65
2023-05-03T01:23:21.555Z,177.65
2023-05-03T01:23:54.009Z,179.14
2023-05-03T01:24:26.414Z,198.87
2023-05-03T01:24:58.874Z,197.35
2023-05-03T01:25:31.341Z,179.14
2023-05-03T01:26:03.773Z,177.64
2023-05-03T01:26:36.277Z,177.65
2023-05-03T01:27:08.717Z,165.00
2023-05-03T01:27:41.266Z,198.83
2023-05-03T01:28:13.665Z,209.39
2023-05-03T01:28:46.080Z,209.16
2023-05-03T01:29:18.478Z,208.77
2023-05-03T01:29:50.917Z,210.00
2023-05-03T01:30:23.380Z,210.00
2023-05-03T01:30:55.831Z,209.39
2023-05-03T01:31:28.285Z,207.82
2023-05-03T01:32:00.721Z,209.88
2023-05-03T01:32:33.169Z,209.39
2023-05-03T01:33:05.603Z,210.00
2023-05-03T01:33:38.010Z,209.39
2023-05-03T01:34:10.414Z,194.36
2023-05-03T01:34:42.847Z,176.13
2023-05-03T01:35:15.267Z,170.42
2023-05-03T01:35:47.678Z,177.64
2023-05-03T01:36:20.145Z,201.65
2023-05-03T01:36:52.588Z,205.32
2023-05-03T01:37:25.015Z,193.52
2023-05-03T01:37:57.425Z,208.55
2023-05-03T01:38:29.999Z,209.16
2023-05-03T01:39:02.415Z,189.75
2023-05-03T01:39:34.882Z,178.53
2023-05-03T01:40:07.315Z,47.83
2023-05-03T01:40:39.739Z,176.17
2023-05-03T01:41:12.158Z,171.83
2023-05-03T01:41:44.585Z,179.14
2023-05-03T01:42:17.011Z,177.65
2023-05-03T01:42:49.465Z,177.65
2023-05-03T01:43:21.893Z,88.24
2023-05-03T01:43:54.301Z,98.85
2023-05-03T01:44:26.725Z,176.15
2023-05-03T01:44:59.178Z,179.14
2023-05-03T01:45:31.626Z,177.63
2023-05-03T01:46:04.081Z,176.15
2023-05-03T01:46:36.466Z,176.15
2023-05-03T01:47:08.929Z,177.65
2023-05-03T01:47:41.327Z,182.01
2023-05-03T01:48:13.765Z,202.21
2023-05-03T01:48:46.156Z,209.39
2023-05-03T01:49:18.569Z,207.34
2023-05-03T01:49:51.004Z,185.89
2023-05-03T01:50:23.422Z,210.00
2023-05-03T01:50:55.873Z,209.28
2023-05-03T01:51:28.250Z,209.88
2023-05-03T01:52:00.671Z,209.28
2023-05-03T01:52:33.090Z,209.77
2023-05-03T01:53:05.503Z,209.28
2023-05-03T01:53:37.948Z,209.88
2023-05-03T01:54:10.371Z,209.39
2023-05-03T01:54:42.811Z,210.00
2023-05-03T01:55:15.244Z,209.28
2023-05-03T01:55:47.666Z,210.00
2023-05-03T01:56:20.108Z,209.39
2023-05-03T01:56:52.545Z,208.55
2023-05-03T01:57:24.972Z,209.77
2023-05-03T01:57:57.429Z,209.77
2023-05-03T01:58:29.853Z,210.00
2023-05-03T01:59:02.287Z,217.73
2023-05-03T01:59:34.724Z,255.00
2023-05-03T02:00:07.176Z,255.00
2023-05-03T02:00:39.613Z,255.00
2023-05-03T02:01:12.095Z,256.48
2023-05-03T02:01:44.546Z,54.04
2023-05-03T02:02:16.905Z,75.00
2023-05-03T02:02:49.374Z,75.00
2023-05-03T02:03:21.777Z,75.00
2023-05-03T02:03:54.214Z,75.00
2023-05-03T02:04:26.657Z,75.00
2023-05-03T02:04:59.041Z,75.00
2023-05-03T02:05:31.478Z,75.00
2023-05-03T02:06:03.932Z,70.07
2023-05-03T02:06:36.365Z,356.17
2023-05-03T02:07:08.784Z,75.00
2023-05-03T02:07:41.172Z,38.03
2023-05-03T02:08:13.579Z,255.00
2023-05-03T02:08:46.014Z,250.25
2023-05-03T02:09:18.421Z,255.00
2023-05-03T02:09:50.848Z,255.00
2023-05-03T02:10:23.234Z,255.00
2023-05-03T02:10:55.652Z,255.00
2023-05-03T02:11:28.047Z,255.00
2023-05-03T02:12:00.518Z,255.00
2023-05-03T02:12:32.953Z,255.00
2023-05-03T02:13:05.417Z,255.00
2023-05-03T02:13:37.828Z,255.00
2023-05-03T02:14:10.266Z,230.62
2023-05-03T02:14:42.720Z,209.39
2023-05-03T02:15:15.183Z,210.00
2023-05-03T02:15:47.611Z,210.00
2023-05-03T02:16:20.076Z,209.05
2023-05-03T02:16:52.508Z,209.39
2023-05-03T02:17:24.957Z,30.89
2023-05-03T02:17:57.390Z,30.00
2023-05-03T02:18:29.794Z,30.00
2023-05-03T02:19:02.309Z,30.00
2023-05-03T02:19:34.799Z,30.00
2023-05-03T02:20:07.249Z,30.00
2023-05-03T02:20:39.658Z,30.00
2023-05-03T02:21:12.086Z,30.00
2023-05-03T02:21:44.507Z,30.00
2023-05-03T02:22:16.955Z,30.00
2023-05-03T02:22:49.410Z,30.00
2023-05-03T02:23:21.788Z,30.00
2023-05-03T02:23:54.194Z,17.64
2023-05-03T02:24:26.607Z,209.05
2023-05-03T02:24:59.062Z,208.77
2023-05-03T02:25:31.504Z,210.00
2023-05-03T02:26:04.146Z,209.39
2023-05-03T02:26:36.568Z,210.00
2023-05-03T02:27:09.016Z,208.66
2023-05-03T02:27:41.463Z,30.00
2023-05-03T02:28:13.867Z,30.00
2023-05-03T02:28:46.292Z,30.00
2023-05-03T02:29:18.729Z,30.00
2023-05-03T02:29:51.113Z,30.00
2023-05-03T02:30:23.575Z,30.00
2023-05-03T02:30:56.034Z,30.00
2023-05-03T02:31:28.559Z,30.00
2023-05-03T02:32:00.867Z,30.00
2023-05-03T02:32:33.409Z,30.00
2023-05-03T02:33:05.756Z,30.00
2023-05-03T02:33:38.166Z,30.00
2023-05-03T02:34:10.616Z,30.00
2023-05-03T02:34:43.025Z,30.00
2023-05-03T02:35:15.439Z,30.00
2023-05-03T02:35:47.862Z,30.00
2023-05-03T02:36:20.263Z,30.00
2023-05-03T02:36:52.712Z,30.00
2023-05-03T02:37:25.136Z,30.00
2023-05-03T02:37:57.606Z,30.00
2023-05-03T02:38:30.027Z,30.00
2023-05-03T02:39:02.439Z,24.58
2023-05-03T02:39:34.843Z,209.65
2023-05-03T02:40:07.303Z,208.66
2023-05-03T02:40:39.707Z,209.88
2023-05-03T02:41:12.134Z,209.77
2023-05-03T02:41:44.553Z,209.16
2023-05-03T02:42:16.981Z,209.77
2023-05-03T02:42:49.417Z,210.00
2023-05-03T02:43:21.836Z,209.28
2023-05-03T02:43:54.281Z,210.00
2023-05-03T02:44:26.712Z,209.88
2023-05-03T02:44:59.158Z,209.88
2023-05-03T02:45:31.601Z,209.88
2023-05-03T02:46:04.010Z,207.93
2023-05-03T02:46:36.506Z,208.66
2023-05-03T02:47:08.843Z,209.88
2023-05-03T02:47:41.290Z,209.16
2023-05-03T02:48:13.740Z,209.39
2023-05-03T02:48:46.147Z,208.66
2023-05-03T02:49:18.588Z,208.66
2023-05-03T02:49:51.017Z,209.88
2023-05-03T02:50:23.417Z,210.00
2023-05-03T02:50:55.848Z,210.00
2023-05-03T02:51:28.303Z,209.16
2023-05-03T02:52:00.718Z,210.00
2023-05-03T02:52:33.139Z,209.88
2023-05-03T02:53:05.589Z,209.88
2023-05-03T02:53:38.037Z,209.16
2023-05-03T02:54:10.468Z,210.00
2023-05-03T02:54:42.914Z,177.78
2023-05-03T02:55:15.368Z,75.00
2023-05-03T02:55:47.792Z,75.00
2023-05-03T02:56:20.221Z,75.00
2023-05-03T02:56:52.643Z,168.95
2023-05-03T02:57:25.052Z,295.07
2023-05-03T02:57:57.476Z,300.00
2023-05-03T02:58:29.905Z,199.80
2023-05-03T02:59:02.305Z,177.65
2023-05-03T02:59:34.746Z,177.64
2023-05-03T03:00:07.153Z,174.65
2023-05-03T03:00:39.552Z,176.19
2023-05-03T03:01:11.978Z,177.65
2023-05-03T03:01:44.400Z,180.64
2023-05-03T03:02:16.809Z,180.64
2023-05-03T03:02:49.303Z,179.14
2023-05-03T03:03:21.718Z,179.14
2023-05-03T03:03:54.151Z,177.65
2023-05-03T03:04:26.565Z,177.65
2023-05-03T03:04:58.978Z,179.14
2023-05-03T03:05:31.387Z,209.77
2023-05-03T03:06:03.847Z,210.00
2023-05-03T03:06:36.365Z,208.33
2023-05-03T03:07:08.742Z,209.16
2023-05-03T03:07:41.185Z,209.88
2023-05-03T03:08:13.605Z,209.16
2023-05-03T03:08:46.027Z,210.00
2023-05-03T03:09:18.420Z,209.28
2023-05-03T03:09:50.862Z,210.00
2023-05-03T03:10:23.229Z,208.66
2023-05-03T03:10:55.667Z,209.39
2023-05-03T03:11:28.121Z,210.00
2023-05-03T03:12:00.537Z,210.00
2023-05-03T03:12:32.966Z,191.20
2023-05-03T03:13:05.415Z,75.00
2023-05-03T03:13:37.837Z,75.00
2023-05-03T03:14:10.250Z,75.00
2023-05-03T03:14:42.664Z,75.00
2023-05-03T03:15:15.086Z,75.00
2023-05-03T03:15:47.533Z,75.00
2023-05-03T03:16:19.925Z,75.00
2023-05-03T03:16:52.385Z,75.00
2023-05-03T03:17:24.792Z,75.00
2023-05-03T03:17:57.358Z,75.00
2023-05-03T03:18:29.737Z,75.00
2023-05-03T03:19:02.165Z,75.00
2023-05-03T03:19:34.587Z,75.00
2023-05-03T03:20:06.985Z,75.00
2023-05-03T03:20:39.410Z,75.00
2023-05-03T03:21:11.829Z,75.00
2023-05-03T03:21:44.366Z,75.00
2023-05-03T03:22:16.793Z,75.00
2023-05-03T03:22:49.223Z,75.00
2023-05-03T03:23:21.646Z,75.00
2023-05-03T03:23:54.044Z,75.00
2023-05-03T03:24:26.443Z,75.00
2023-05-03T03:24:58.869Z,75.00
2023-05-03T03:25:31.296Z,75.00
2023-05-03T03:26:03.707Z,75.00
2023-05-03T03:26:36.130Z,75.00
2023-05-03T03:27:08.569Z,75.00
2023-05-03T03:27:41.016Z,75.00
2023-05-03T03:28:13.432Z,75.00
2023-05-03T03:28:45.850Z,75.00
2023-05-03T03:29:18.248Z,75.00
2023-05-03T03:29:50.689Z,75.00
2023-05-03T03:30:23.106Z,75.00
2023-05-03T03:30:55.533Z,75.00
2023-05-03T03:31:28.086Z,75.00
2023-05-03T03:32:00.507Z,75.00
2023-05-03T03:32:32.920Z,75.00
2023-05-03T03:33:05.390Z,75.00
2023-05-03T03:33:37.776Z,75.00
2023-05-03T03:34:10.183Z,75.00
2023-05-03T03:34:42.632Z,75.00
2023-05-03T03:35:15.073Z,75.00
2023-05-03T03:35:47.486Z,75.00
2023-05-03T03:36:19.907Z,75.00
2023-05-03T03:36:52.321Z,75.00
2023-05-03T03:37:24.725Z,75.00
2023-05-03T03:37:57.147Z,75.00
2023-05-03T03:38:29.557Z,75.00
2023-05-03T03:39:01.977Z,75.00
2023-05-03T03:39:34.434Z,75.00
2023-05-03T03:40:06.817Z,75.00
2023-05-03T03:40:39.288Z,75.00
2023-05-03T03:41:11.670Z,75.00
2023-05-03T03:41:44.108Z,75.00
2023-05-03T03:42:17.222Z,75.00
2023-05-03T03:42:49.011Z,75.00
2023-05-03T03:43:21.441Z,75.00
2023-05-03T03:43:53.930Z,75.00
2023-05-03T03:44:26.360Z,75.00
2023-05-03T03:44:58.770Z,75.00
2023-05-03T03:45:31.213Z,75.00
2023-05-03T03:46:03.643Z,75.00
2023-05-03T03:46:36.088Z,75.00
2023-05-03T03:47:08.581Z,75.00
2023-05-03T03:47:41.018Z,75.00
2023-05-03T03:48:13.466Z,75.00
2023-05-03T03:48:45.795Z,75.00
2023-05-03T03:49:18.232Z,75.00
2023-05-03T03:49:50.614Z,75.00
2023-05-03T03:50:23.149Z,75.00
2023-05-03T03:50:55.545Z,75.00
2023-05-03T03:51:27.990Z,75.00
2023-05-03T03:52:00.392Z,75.00
2023-05-03T03:52:32.831Z,75.00
2023-05-03T03:53:05.260Z,75.00
2023-05-03T03:53:37.688Z,75.00
2023-05-03T03:54:10.108Z,75.00
2023-05-03T03:54:42.511Z,75.00
2023-05-03T03:55:14.928Z,75.00
2023-05-03T03:55:47.349Z,75.00
2023-05-03T03:56:19.765Z,75.00
2023-05-03T03:56:52.176Z,75.00
2023-05-03T03:57:24.580Z,75.00
2023-05-03T03:57:57.001Z,75.00
2023-05-03T03:58:29.418Z,75.00
2023-05-03T03:59:01.856Z,75.00
2023-05-03T03:59:34.277Z,75.00
2023-05-03T04:00:06.750Z,75.00
2023-05-03T04:00:39.148Z,75.00
2023-05-03T04:01:11.558Z,35.26
2023-05-03T04:01:44.034Z,30.00
2023-05-03T04:02:16.450Z,30.00
2023-05-03T04:02:48.957Z,30.00
2023-05-03T04:03:21.409Z,30.00
2023-05-03T04:03:53.834Z,30.00
2023-05-03T04:04:26.220Z,30.00
2023-05-03T04:04:58.599Z,30.00
2023-05-03T04:05:31.083Z,30.00
2023-05-03T04:06:03.541Z,30.00
2023-05-03T04:06:35.967Z,30.00
2023-05-03T04:07:08.372Z,30.00
2023-05-03T04:07:40.812Z,30.00
2023-05-03T04:08:13.261Z,30.00
2023-05-03T04:08:45.660Z,30.00
2023-05-03T04:09:18.075Z,30.00
2023-05-03T04:09:50.513Z,30.00
2023-05-03T04:10:22.916Z,30.00
2023-05-03T04:10:55.341Z,30.00
2023-05-03T04:11:27.761Z,30.00
2023-05-03T04:12:00.176Z,30.00
2023-05-03T04:12:32.587Z,30.00
2023-05-03T04:13:04.999Z,30.00
2023-05-03T04:13:37.428Z,30.00
2023-05-03T04:14:09.835Z,30.00
2023-05-03T04:14:42.261Z,30.00
2023-05-03T04:15:14.684Z,30.00
2023-05-03T04:15:47.096Z,30.00
2023-05-03T04:16:19.566Z,30.00
2023-05-03T04:16:51.947Z,346.87
2023-05-03T04:17:24.432Z,255.00
2023-05-03T04:17:56.854Z,255.00
2023-05-03T04:18:29.781Z,255.00
2023-05-03T04:19:02.211Z,255.00
2023-05-03T04:19:34.623Z,238.21
2023-05-03T04:20:07.087Z,252.34
2023-05-03T04:20:39.480Z,255.00
2023-05-03T04:21:11.915Z,255.00
2023-05-03T04:21:44.357Z,255.00
2023-05-03T04:22:16.771Z,255.00
2023-05-03T04:22:49.220Z,255.00
2023-05-03T04:23:21.717Z,255.00
2023-05-03T04:23:54.111Z,257.79
2023-05-03T04:24:26.585Z,73.61
2023-05-03T04:24:59.026Z,75.00
2023-05-03T04:25:31.501Z,75.00
2023-05-03T04:26:05.091Z,75.00
2023-05-03T04:26:36.410Z,58.11
2023-05-03T04:27:08.900Z,62.69
2023-05-03T04:27:41.330Z,75.00
2023-05-03T04:28:13.730Z,70.97
2023-05-03T04:28:46.170Z,75.00
2023-05-03T04:29:18.579Z,75.00
2023-05-03T04:29:50.996Z,75.00
2023-05-03T04:30:23.433Z,71.63
2023-05-03T04:30:55.893Z,55.57
2023-05-03T04:31:28.363Z,50.20
2023-05-03T04:32:00.701Z,30.00
2023-05-03T04:32:33.120Z,30.00
2023-05-03T04:33:05.535Z,30.00
2023-05-03T04:33:37.950Z,22.36
2023-05-03T04:34:10.374Z,240.96
2023-05-03T04:34:42.802Z,228.47
2023-05-03T04:35:15.269Z,75.00
2023-05-03T04:35:47.666Z,75.00
2023-05-03T04:36:20.102Z,60.86
2023-05-03T04:36:52.507Z,9.65
2023-05-03T04:37:24.937Z,329.85
2023-05-03T04:37:57.396Z,30.00
2023-05-03T04:38:29.834Z,54.04
2023-05-03T04:39:02.288Z,75.00
2023-05-03T04:39:34.704Z,75.00
2023-05-03T04:40:07.132Z,70.31
2023-05-03T04:40:39.528Z,7.78
2023-05-03T04:41:12.817Z,75.00
2023-05-03T04:41:44.397Z,75.00
2023-05-03T04:42:16.826Z,75.00
2023-05-03T04:42:49.250Z,75.00
2023-05-03T04:43:21.711Z,75.00
2023-05-03T04:43:54.188Z,68.86
2023-05-03T04:44:26.604Z,56.34
2023-05-03T04:44:59.048Z,60.85
2023-05-03T04:45:31.479Z,75.00
2023-05-03T04:46:04.015Z,75.00
2023-05-03T04:46:36.411Z,75.00
2023-05-03T04:47:08.775Z,75.00
2023-05-03T04:47:41.258Z,75.00
2023-05-03T04:48:13.822Z,75.00
2023-05-03T04:48:46.101Z,75.00
2023-05-03T04:49:18.541Z,75.00
2023-05-03T04:49:51.016Z,75.00
2023-05-03T04:50:23.402Z,75.00
2023-05-03T04:50:55.818Z,75.00
2023-05-03T04:51:28.254Z,84.42
2023-05-03T04:52:00.673Z,255.00
2023-05-03T04:52:33.121Z,25.56
2023-05-03T04:53:05.564Z,30.00
2023-05-03T04:53:37.953Z,30.00
2023-05-03T04:54:10.393Z,30.00
2023-05-03T04:54:42.811Z,30.00
2023-05-03T04:55:15.289Z,30.00
2023-05-03T04:55:47.737Z,30.00
2023-05-03T04:56:20.196Z,30.00
2023-05-03T04:56:52.664Z,30.00
2023-05-03T04:57:25.127Z,36.83
2023-05-03T04:57:57.528Z,30.00
2023-05-03T04:58:29.962Z,30.00
2023-05-03T04:59:02.393Z,30.00
2023-05-03T04:59:34.886Z,30.00
2023-05-03T05:00:07.293Z,30.00
2023-05-03T05:00:39.729Z,30.00
2023-05-03T05:02:56.156Z,30.00
2023-05-03T05:03:28.532Z,30.00
2023-05-03T05:04:01.081Z,30.00
2023-05-03T05:04:33.239Z,30.00
2023-05-03T05:05:05.654Z,30.00
2023-05-03T05:05:38.090Z,30.00
2023-05-03T05:06:10.570Z,30.00
2023-05-03T05:06:42.964Z,30.00
2023-05-03T05:07:15.401Z,30.00
2023-05-03T05:07:47.809Z,30.00
2023-05-03T05:08:20.261Z,30.00
2023-05-03T05:08:52.647Z,30.00
2023-05-03T05:09:25.125Z,30.00
2023-05-03T05:09:57.554Z,30.00
2023-05-03T05:10:29.992Z,30.00
2023-05-03T05:11:03.256Z,30.00
2023-05-03T05:11:35.717Z,30.00
2023-05-03T05:12:08.737Z,30.00
2023-05-03T05:12:41.174Z,30.00
2023-05-03T05:13:13.611Z,30.00
2023-05-03T05:13:46.066Z,30.00
2023-05-03T05:14:18.476Z,30.00
2023-05-03T05:14:50.955Z,30.00
2023-05-03T05:15:23.398Z,30.00
2023-05-03T05:15:55.834Z,30.00
2023-05-03T05:16:28.288Z,30.00
2023-05-03T05:17:00.771Z,30.00
2023-05-03T05:17:33.210Z,30.00
2023-05-03T05:18:05.654Z,30.00
2023-05-03T05:18:38.094Z,30.00
2023-05-03T05:19:10.526Z,30.00
2023-05-03T05:19:42.984Z,30.00
2023-05-03T05:20:16.928Z,30.00
2023-05-03T05:20:47.900Z,30.00
2023-05-03T05:21:20.336Z,30.00
2023-05-03T05:21:52.775Z,30.00
2023-05-03T05:22:25.275Z,30.00
2023-05-03T05:22:57.731Z,30.00
2023-05-03T05:23:30.201Z,11.79
2023-05-03T05:24:02.687Z,255.00
2023-05-03T05:24:35.152Z,255.00
2023-05-03T05:25:07.583Z,255.00
2023-05-03T05:25:40.025Z,298.41
2023-05-03T05:26:12.485Z,30.00
2023-05-03T05:26:46.519Z,30.00
2023-05-03T05:27:19.716Z,30.00
2023-05-03T05:27:53.009Z,137.72
2023-05-03T05:28:25.411Z,255.00
2023-05-03T05:28:57.855Z,208.05
2023-05-03T05:29:30.247Z,176.30
2023-05-03T05:30:02.945Z,170.29
2023-05-03T05:30:35.206Z,28.50
2023-05-03T05:31:07.704Z,76.48
2023-05-03T05:31:40.172Z,345.59
2023-05-03T05:32:12.505Z,31.52
2023-05-03T05:32:44.972Z,176.23
2023-05-03T05:33:19.187Z,174.70
2023-05-03T05:33:49.841Z,210.00
2023-05-03T05:34:22.257Z,213.27
2023-05-03T05:34:54.689Z,251.47
2023-05-03T05:35:27.153Z,75.00
2023-05-03T05:35:59.595Z,75.00
2023-05-03T05:36:32.072Z,255.00
2023-05-03T05:37:04.499Z,218.85
2023-05-03T05:37:36.940Z,186.76
2023-05-03T05:38:09.333Z,210.00
2023-05-03T05:38:41.751Z,204.58
2023-05-03T05:39:14.158Z,253.70
2023-05-03T05:39:47.512Z,197.75
2023-05-03T05:40:19.914Z,255.00
2023-05-03T05:40:53.009Z,252.34
2023-05-03T05:41:25.466Z,281.41
2023-05-03T05:41:57.959Z,167.46
2023-05-03T05:42:32.037Z,216.29
2023-05-03T05:43:05.041Z,174.70
2023-05-03T05:43:37.464Z,130.33
2023-05-03T05:44:10.513Z,266.94
2023-05-03T05:44:42.939Z,157.39
2023-05-03T05:45:15.393Z,169.03
2023-05-03T05:45:47.899Z,159.82
2023-05-03T05:46:21.131Z,75.00
2023-05-03T05:46:53.481Z,218.28
2023-05-03T05:47:26.324Z,176.95
2023-05-03T05:47:58.491Z,167.62
2023-05-03T05:48:31.509Z,169.03
2023-05-03T05:49:04.810Z,166.23
2023-05-03T05:49:38.015Z,187.80
2023-05-03T05:50:17.703Z,104.74
2023-05-03T05:50:43.505Z,251.63
2023-05-03T05:51:15.976Z,40.58
2023-05-03T05:51:49.025Z,162.19
2023-05-03T05:52:22.260Z,199.59
2023-05-03T05:52:54.701Z,202.83
2023-05-03T05:53:27.150Z,250.51
2023-05-03T05:53:59.615Z,313.36
2023-05-03T05:54:32.071Z,115.13
2023-05-03T05:55:04.620Z,173.26
2023-05-03T05:55:37.046Z,170.35
2023-05-03T05:56:09.479Z,170.45
2023-05-03T05:56:41.949Z,170.42
2023-05-03T05:57:14.441Z,170.32
2023-05-03T05:57:46.966Z,167.54
2023-05-03T05:58:19.466Z,240.15
2023-05-03T05:58:51.983Z,316.77
2023-05-03T05:59:24.506Z,151.36
2023-05-03T05:59:56.928Z,255.00
2023-05-03T06:00:29.463Z,213.55
2023-05-03T06:01:01.870Z,251.67
2023-05-03T06:01:35.267Z,54.07
2023-05-03T06:02:07.705Z,45.10
2023-05-03T06:02:40.213Z,86.75
2023-05-03T06:03:12.661Z,62.35
2023-05-03T06:03:45.011Z,53.27
2023-05-03T06:04:17.457Z,30.00
2023-05-03T06:04:49.953Z,44.93
2023-05-03T06:05:22.427Z,39.65
2023-05-03T06:05:54.839Z,56.32
2023-05-03T06:06:28.354Z,47.95
2023-05-03T06:07:00.815Z,45.96
2023-05-03T06:07:34.025Z,50.71
2023-05-03T06:08:07.246Z,44.93
2023-05-03T06:08:40.627Z,52.15
2023-05-03T06:09:23.629Z,48.73
2023-05-03T06:09:45.525Z,56.32
2023-05-03T06:10:18.528Z,46.50
2023-05-03T06:10:51.759Z,48.68
2023-05-03T06:11:25.517Z,50.20
2023-05-03T06:11:57.942Z,63.83
2023-05-03T06:12:30.450Z,42.12
2023-05-03T06:13:02.960Z,45.49
2023-05-03T06:13:35.418Z,11.79
2023-05-03T06:14:07.885Z,47.16
2023-05-03T06:14:46.284Z,75.00
2023-05-03T06:15:12.768Z,202.87
2023-05-03T06:15:45.240Z,125.76
2023-05-03T06:16:17.697Z,6.86
2023-05-03T06:16:50.689Z,272.48
2023-05-03T06:17:22.911Z,255.00
2023-05-03T06:17:55.591Z,354.54
2023-05-03T06:18:27.947Z,221.79
2023-05-03T06:19:00.415Z,323.44
2023-05-03T06:19:33.751Z,244.55
2023-05-03T06:20:06.448Z,59.30
2023-05-03T06:20:38.632Z,25.68
2023-05-03T06:21:11.054Z,358.29
2023-05-03T06:21:43.485Z,75.00
2023-05-03T06:22:16.761Z,59.36
2023-05-03T06:22:49.222Z,255.00
2023-05-03T06:23:21.665Z,58.72
2023-05-03T06:23:54.088Z,295.08
2023-05-03T06:24:26.572Z,183.16
2023-05-03T06:24:59.028Z,315.47
2023-05-03T06:25:32.021Z,35.56
2023-05-03T06:26:04.465Z,75.39
2023-05-03T06:26:37.532Z,39.89
2023-05-03T06:27:09.987Z,41.10
2023-05-03T06:27:42.485Z,18.59
2023-05-03T06:28:15.794Z,54.94
2023-05-03T06:28:49.027Z,39.04
2023-05-03T06:29:21.543Z,292.14
2023-05-03T06:29:55.522Z,331.76
2023-05-03T06:30:27.997Z,35.17
2023-05-03T06:31:00.479Z,315.53
2023-05-03T06:31:32.988Z,35.80
2023-05-03T06:32:06.022Z,24.05
2023-05-03T06:32:38.505Z,45.12
2023-05-03T06:33:11.719Z,38.65
2023-05-03T06:33:44.545Z,37.43
2023-05-03T06:34:17.552Z,52.52
2023-05-03T06:34:50.013Z,46.13
2023-05-03T06:35:22.507Z,51.00
2023-05-03T06:35:55.000Z,47.59
2023-05-03T06:36:28.031Z,37.09
2023-05-03T06:37:00.536Z,61.20
2023-05-03T06:37:34.051Z,30.88
2023-05-03T06:38:06.499Z,245.26
2023-05-03T06:38:39.793Z,71.16
2023-05-03T06:39:12.296Z,118.36
2023-05-03T06:39:45.527Z,54.69
2023-05-03T06:40:17.984Z,227.34
2023-05-03T06:40:50.454Z,354.61
2023-05-03T06:41:22.901Z,42.90
2023-05-03T06:41:56.031Z,38.31
2023-05-03T06:42:28.459Z,274.32
2023-05-03T06:43:00.933Z,44.77
2023-05-03T06:43:33.397Z,45.30
2023-05-03T06:44:05.858Z,38.90
2023-05-03T06:44:38.302Z,31.94
2023-05-03T06:45:10.751Z,55.49
2023-05-03T06:45:43.237Z,37.25
2023-05-03T06:46:17.139Z,48.55
2023-05-03T06:46:48.199Z,42.80
2023-05-03T06:47:20.597Z,37.06
2023-05-03T06:47:53.275Z,10.24
2023-05-03T06:48:26.591Z,344.82
2023-05-03T06:48:59.027Z,328.66
2023-05-03T06:49:31.452Z,47.62
2023-05-03T06:50:04.417Z,28.65
2023-05-03T06:50:37.075Z,30.53
2023-05-03T06:51:09.482Z,50.18
2023-05-03T06:51:41.931Z,21.67
2023-05-03T06:52:14.380Z,32.66
2023-05-03T06:52:46.879Z,307.90
2023-05-03T06:53:19.327Z,266.81